Airfield :
LOGIN :

Register | Disclaimer

   EN    FR    IT 

 










Legend :    VFR   Marginal VFR   IFR   Intensive IFR   Very Intensive IFR
Visi :
Ceiling :
>= 8 km
>= 3000ft
5 to 8 km
1000 to 3000 ft
1500m to 5 km
500 to 1000 ft
800 to 1500m
200 to 500 ft
< 800m
< 200 ft
Symbols :   Thunderstorms  Fog  Heavy snow  Heavy precipitations  Wind > 20 kt
SIGMETs :     Misc.  Thunderstorms  Icing  Turbulence  Mountain Waves  Volcanic Ashes







- Airport Elevation : 87 ft
- IATA code : FSC
- Download approach charts


LFKF - Figari

CURRENT METAR :
  • 200430Z AUTO 11002KT CAVOK 15/14 Q1017 TEMPO SHRA SCT020CB BKN080

EXPIRED METARs :
  • 200400Z AUTO 01002KT CAVOK 15/14 Q1017 TEMPO SHRA SCT020CB BKN080
  • 200330Z AUTO 04002KT 9999 FEW050 15/14 Q1017 TEMPO SHRA SCT020CB BKN080
  • 200300Z AUTO 03003KT CAVOK 15/15 Q1017 TEMPO SHRA SCT020CB BKN080
  • 200230Z AUTO 22001KT 9999 BKN052 16/15 Q1017 TEMPO SHRA SCT020CB BKN080
  • 200200Z AUTO 28002KT 9999 FEW052 15/15 Q1017

TAF TAF LFKF
Valid from the 20 at 03:00 until the 21 at 03:00 UTC


200200Z 2003/2103 04004KT CAVOK
TEMPO 2003/2012 SCT030
PROB40
TEMPO 2003/2010 SHRA SCT020CB BKN080
No reported NOTAMs for that airfield.



MET'MAP, your aeronautical weather chart ! - Copyright ORBIFLY December 2007 - Disclaimer

ORBIFLY MET'MAP TEAM :

Programming & Development : Alexandra Zaïnal
Concept & Development : Baudouin d'Aumeries
Co-Development & Prog : Marc-Olivier Méhu
Technical & hardware support : Manuel Goepfert

Contact : metmap@orbifly.com




SOURCES & CREDITS :

   NOAA